createdAt,value
2023-03-17T00:00:35.718Z,99.90
2023-03-17T00:03:02.054Z,99.90
2023-03-17T00:05:31.437Z,99.90
2023-03-17T00:07:56.549Z,99.90
2023-03-17T00:10:23.246Z,99.90
2023-03-17T00:12:48.023Z,99.90
2023-03-17T00:15:13.947Z,99.90
2023-03-17T00:17:38.522Z,99.90
2023-03-17T00:20:04.883Z,99.90
2023-03-17T00:22:31.814Z,99.90
2023-03-17T00:24:56.285Z,99.90
2023-03-17T00:27:20.940Z,99.90
2023-03-17T00:29:45.412Z,99.90
2023-03-17T00:32:18.410Z,99.90
2023-03-17T00:34:43.140Z,99.90
2023-03-17T00:37:12.782Z,99.90
2023-03-17T00:39:37.339Z,99.90
2023-03-17T00:42:01.809Z,99.90
2023-03-17T00:44:26.484Z,99.90
2023-03-17T00:46:51.795Z,99.90
2023-03-17T00:51:43.214Z,99.90
2023-03-17T00:54:11.514Z,99.90
2023-03-17T00:56:36.754Z,99.90
2023-03-17T00:59:02.791Z,99.90
2023-03-17T01:01:27.530Z,99.90
2023-03-17T01:03:52.879Z,99.90
2023-03-17T01:06:18.232Z,99.90
2023-03-17T01:08:44.798Z,99.90
2023-03-17T01:11:16.428Z,99.90
2023-03-17T01:13:41.051Z,99.90
2023-03-17T01:16:11.237Z,99.90
2023-03-17T01:18:35.896Z,99.90
2023-03-17T01:21:00.273Z,99.90
2023-03-17T01:23:24.828Z,99.90
2023-03-17T01:25:50.836Z,99.90
2023-03-17T01:28:19.809Z,99.90
2023-03-17T01:30:45.261Z,99.90
2023-03-17T01:33:11.683Z,99.90
2023-03-17T01:35:38.354Z,99.90
2023-03-17T01:38:03.627Z,99.90
2023-03-17T01:40:32.359Z,99.90
2023-03-17T01:43:04.413Z,99.90
2023-03-17T01:46:06.774Z,99.90
2023-03-17T01:48:36.184Z,99.90
2023-03-17T01:51:00.822Z,99.90
2023-03-17T01:53:25.943Z,99.90
2023-03-17T01:55:52.692Z,99.90
2023-03-17T01:58:19.123Z,99.90
2023-03-17T02:00:46.580Z,99.90
2023-03-17T02:03:11.737Z,99.90
2023-03-17T02:05:39.673Z,99.90
2023-03-17T02:08:10.185Z,99.90
2023-03-17T02:10:34.541Z,99.90
2023-03-17T02:13:04.486Z,99.90
2023-03-17T02:15:39.228Z,99.90
2023-03-17T02:18:03.961Z,99.90
2023-03-17T02:21:14.391Z,99.90
2023-03-17T02:23:48.048Z,99.90
2023-03-17T02:26:13.877Z,99.90
2023-03-17T02:28:39.705Z,99.90
2023-03-17T02:31:04.743Z,99.90
2023-03-17T02:33:29.213Z,99.90
2023-03-17T02:35:53.649Z,99.90
2023-03-17T02:38:20.211Z,99.90
2023-03-17T02:40:46.350Z,99.90
2023-03-17T02:43:10.804Z,99.90
2023-03-17T02:45:35.224Z,99.90
2023-03-17T02:48:00.665Z,99.90
2023-03-17T02:50:28.113Z,99.90
2023-03-17T02:52:52.991Z,99.90
2023-03-17T02:55:17.898Z,99.90
2023-03-17T02:57:43.920Z,99.90
2023-03-17T03:00:10.554Z,99.90
2023-03-17T03:02:49.161Z,99.90
2023-03-17T03:05:15.854Z,99.90
2023-03-17T03:07:40.291Z,99.90
2023-03-17T03:10:05.559Z,99.90
2023-03-17T03:12:30.519Z,99.90
2023-03-17T03:14:56.264Z,99.90
2023-03-17T03:17:21.991Z,99.90
2023-03-17T03:19:58.013Z,99.90
2023-03-17T03:22:22.504Z,99.90
2023-03-17T03:24:47.012Z,99.90
2023-03-17T03:27:11.674Z,99.90
2023-03-17T03:29:36.471Z,99.90
2023-03-17T03:32:02.422Z,99.90
2023-03-17T03:34:27.881Z,99.90
2023-03-17T03:36:52.399Z,99.90
2023-03-17T03:39:16.765Z,99.90
2023-03-17T03:41:41.284Z,99.90
2023-03-17T03:44:05.782Z,99.90
2023-03-17T03:46:30.574Z,99.90
2023-03-17T03:48:56.789Z,99.90
2023-03-17T03:51:21.404Z,99.90
2023-03-17T03:53:45.817Z,99.90
2023-03-17T03:56:10.445Z,99.90
2023-03-17T03:58:34.849Z,99.90
2023-03-17T04:00:59.248Z,99.90
2023-03-17T04:03:23.792Z,99.90
2023-03-17T04:05:49.638Z,99.90
2023-03-17T04:08:14.044Z,99.90
2023-03-17T04:10:38.548Z,99.90
2023-03-17T04:13:03.546Z,99.90
2023-03-17T04:15:28.038Z,99.90
2023-03-17T04:17:55.014Z,99.90
2023-03-17T04:20:20.577Z,99.90
2023-03-17T04:22:46.683Z,99.90
2023-03-17T04:25:13.604Z,99.90
2023-03-17T04:27:38.161Z,99.90
2023-03-17T04:30:02.735Z,99.90
2023-03-17T04:32:28.063Z,99.90
2023-03-17T04:34:52.479Z,99.90
2023-03-17T04:37:16.880Z,99.90
2023-03-17T04:39:42.704Z,99.90
2023-03-17T04:42:07.946Z,99.90
2023-03-17T04:44:32.329Z,99.90
2023-03-17T04:46:56.753Z,99.90
2023-03-17T04:49:23.674Z,99.90
2023-03-17T04:51:48.393Z,99.90
2023-03-17T04:54:13.174Z,99.90
2023-03-17T04:56:39.188Z,99.90
2023-03-17T04:59:04.147Z,99.50
2023-03-17T05:01:28.917Z,97.80
2023-03-17T05:03:53.420Z,97.50
2023-03-17T05:06:18.126Z,97.30
2023-03-17T05:08:44.936Z,97.40
2023-03-17T05:11:10.431Z,97.10
2023-03-17T05:13:36.282Z,96.20
2023-03-17T05:16:01.563Z,95.70
2023-03-17T05:18:27.331Z,94.90
2023-03-17T05:20:51.884Z,94.70
2023-03-17T05:23:16.844Z,94.40
2023-03-17T05:25:41.789Z,93.80
2023-03-17T05:28:07.126Z,93.30
2023-03-17T05:30:34.657Z,92.80
2023-03-17T05:33:04.524Z,92.50
2023-03-17T05:35:29.164Z,92.60
2023-03-17T05:37:53.760Z,91.70
2023-03-17T05:40:18.528Z,90.80
2023-03-17T05:42:43.100Z,90.00
2023-03-17T05:45:08.817Z,90.70
2023-03-17T05:47:35.161Z,90.30
2023-03-17T05:49:59.588Z,90.00
2023-03-17T05:52:24.127Z,88.50
2023-03-17T05:54:49.178Z,86.80
2023-03-17T05:57:15.470Z,84.70
2023-03-17T05:59:40.177Z,85.10
2023-03-17T06:02:04.717Z,84.60
2023-03-17T06:04:30.912Z,83.50
2023-03-17T06:06:55.382Z,82.60
2023-03-17T06:09:19.953Z,81.90
2023-03-17T06:11:45.081Z,81.10
2023-03-17T06:14:09.495Z,78.10
2023-03-17T06:16:34.269Z,79.70
2023-03-17T06:18:58.671Z,79.40
2023-03-17T06:21:24.672Z,75.70
2023-03-17T06:23:49.068Z,75.40
2023-03-17T06:26:13.628Z,76.80
2023-03-17T06:28:38.049Z,78.00
2023-03-17T06:31:04.700Z,74.90
2023-03-17T06:33:31.620Z,79.10
2023-03-17T06:35:56.392Z,79.70
2023-03-17T06:38:22.290Z,79.40
2023-03-17T06:40:46.926Z,80.30
2023-03-17T06:43:11.551Z,76.80
2023-03-17T06:45:37.462Z,78.10
2023-03-17T06:48:02.393Z,75.70
2023-03-17T06:50:27.146Z,76.60
2023-03-17T06:52:52.147Z,75.90
2023-03-17T06:55:18.487Z,74.80
2023-03-17T06:57:43.241Z,73.60
2023-03-17T07:00:09.383Z,75.80
2023-03-17T07:02:33.893Z,77.00
2023-03-17T07:04:59.285Z,77.20
2023-03-17T07:07:25.028Z,76.40
2023-03-17T07:09:50.140Z,77.40
2023-03-17T07:12:18.905Z,77.90
2023-03-17T07:14:43.501Z,77.90
2023-03-17T07:17:08.459Z,76.80
2023-03-17T07:19:33.251Z,78.60
2023-03-17T07:22:00.669Z,77.50
2023-03-17T07:24:25.561Z,79.90
2023-03-17T07:26:50.374Z,80.10
2023-03-17T07:29:16.642Z,76.20
2023-03-17T07:31:41.503Z,75.30
2023-03-17T07:34:06.756Z,74.70
2023-03-17T07:36:31.519Z,72.90
2023-03-17T07:38:56.690Z,73.90
2023-03-17T07:41:22.497Z,74.40
2023-03-17T07:43:47.184Z,73.90
2023-03-17T07:46:13.978Z,74.90
2023-03-17T07:48:42.305Z,73.70
2023-03-17T07:51:07.466Z,75.50
2023-03-17T07:53:32.019Z,72.80
2023-03-17T07:55:56.460Z,72.60
2023-03-17T07:58:21.998Z,72.90
2023-03-17T08:00:46.709Z,72.90
2023-03-17T08:03:12.792Z,71.50
2023-03-17T08:05:37.804Z,70.90
2023-03-17T08:08:02.359Z,70.20
2023-03-17T08:10:27.410Z,69.40
2023-03-17T08:12:53.446Z,68.10
2023-03-17T08:15:17.942Z,68.30
2023-03-17T08:17:42.522Z,68.80
2023-03-17T08:20:10.117Z,69.40
2023-03-17T08:22:34.478Z,69.20
2023-03-17T08:24:58.982Z,68.80
2023-03-17T08:27:23.842Z,69.00
2023-03-17T08:29:49.907Z,69.50
2023-03-17T08:32:15.116Z,70.50
2023-03-17T08:34:40.043Z,71.50
2023-03-17T08:37:10.069Z,71.40
2023-03-17T08:39:36.362Z,70.10
2023-03-17T08:42:00.855Z,69.00
2023-03-17T08:44:25.506Z,67.80
2023-03-17T08:46:50.340Z,67.70
2023-03-17T08:49:14.761Z,66.40
2023-03-17T08:51:40.101Z,66.70
2023-03-17T08:54:07.761Z,65.90
2023-03-17T08:56:32.205Z,65.50
2023-03-17T08:58:57.073Z,66.10
2023-03-17T09:01:24.883Z,65.20
2023-03-17T09:03:50.209Z,65.80
2023-03-17T09:06:15.749Z,64.40
2023-03-17T09:08:44.867Z,63.40
2023-03-17T09:11:13.046Z,64.90
2023-03-17T09:13:39.135Z,66.30
2023-03-17T09:16:04.043Z,67.80
2023-03-17T09:18:28.795Z,67.90
2023-03-17T09:20:53.465Z,66.20
2023-03-17T09:23:17.973Z,66.50
2023-03-17T09:25:42.984Z,67.30
2023-03-17T09:28:12.485Z,67.00
2023-03-17T09:30:37.470Z,66.60
2023-03-17T09:33:01.928Z,66.10
2023-03-17T09:35:28.150Z,65.80
2023-03-17T09:37:52.769Z,65.50
2023-03-17T09:40:20.394Z,64.20
2023-03-17T09:42:58.256Z,63.30
2023-03-17T09:45:34.486Z,63.00
2023-03-17T09:48:32.307Z,62.50
2023-03-17T09:51:00.121Z,63.20
2023-03-17T09:53:28.434Z,62.50
2023-03-17T09:55:56.965Z,62.70
2023-03-17T09:58:25.597Z,60.40
2023-03-17T10:00:51.919Z,60.90
2023-03-17T10:03:17.703Z,60.90
2023-03-17T10:05:42.278Z,61.20
2023-03-17T10:08:29.345Z,60.80
2023-03-17T10:10:59.629Z,61.00
2023-03-17T10:13:33.597Z,60.50
2023-03-17T10:16:04.745Z,60.90
2023-03-17T10:18:34.124Z,63.10
2023-03-17T10:21:02.216Z,63.40
2023-03-17T10:23:30.973Z,63.40
2023-03-17T10:25:58.767Z,64.00
2023-03-17T10:28:29.710Z,65.30
2023-03-17T10:30:55.048Z,65.80
2023-03-17T10:33:24.065Z,65.60
2023-03-17T10:35:48.622Z,65.30
2023-03-17T10:38:18.523Z,65.10
2023-03-17T10:40:45.566Z,65.10
2023-03-17T10:43:20.657Z,65.10
2023-03-17T10:45:56.472Z,64.50
2023-03-17T10:48:22.340Z,64.80
2023-03-17T10:50:49.561Z,65.10
2023-03-17T10:53:28.212Z,65.20
2023-03-17T10:55:58.855Z,65.10
2023-03-17T10:58:33.125Z,64.20
2023-03-17T11:01:00.134Z,64.10
2023-03-17T11:03:30.030Z,65.30
2023-03-17T11:06:01.690Z,65.30
2023-03-17T11:08:26.239Z,63.70
2023-03-17T11:10:56.940Z,62.30
2023-03-17T11:13:21.495Z,62.20
2023-03-17T11:15:53.258Z,61.50
2023-03-17T11:18:22.883Z,61.90
2023-03-17T11:20:57.600Z,61.70
2023-03-17T11:23:38.985Z,62.60
2023-03-17T11:26:17.591Z,63.10
2023-03-17T11:28:49.379Z,64.10
2023-03-17T11:31:19.364Z,63.30
2023-03-17T11:33:46.339Z,62.70
2023-03-17T11:36:20.488Z,63.00
2023-03-17T11:38:56.082Z,62.80
2023-03-17T11:41:41.370Z,63.10
2023-03-17T11:44:47.730Z,64.30
2023-03-17T11:47:21.045Z,64.40
2023-03-17T11:49:52.778Z,63.20
2023-03-17T11:52:27.046Z,63.70
2023-03-17T11:55:00.069Z,62.00
2023-03-17T11:57:28.377Z,62.60
2023-03-17T11:59:57.058Z,62.60
2023-03-17T12:02:29.604Z,61.00
2023-03-17T12:04:57.350Z,61.10
2023-03-17T12:07:26.310Z,60.80
2023-03-17T12:09:59.853Z,60.30
2023-03-17T12:12:31.494Z,61.00
2023-03-17T12:15:00.472Z,61.40
2023-03-17T12:17:30.389Z,61.60
2023-03-17T12:20:06.926Z,61.60
2023-03-17T12:22:38.029Z,62.70
2023-03-17T12:25:12.571Z,63.00
2023-03-17T12:27:43.987Z,63.70
2023-03-17T12:30:19.014Z,63.10
2023-03-17T12:32:50.340Z,62.20
2023-03-17T12:35:27.877Z,62.70
2023-03-17T12:37:54.691Z,62.50
2023-03-17T12:40:25.212Z,62.40
2023-03-17T12:43:02.143Z,62.60
2023-03-17T12:45:56.095Z,61.80
2023-03-17T12:48:58.144Z,61.40
2023-03-17T12:51:53.123Z,61.80
2023-03-17T12:54:26.649Z,65.00
2023-03-17T12:56:51.570Z,65.00
2023-03-17T12:59:19.671Z,64.50
2023-03-17T13:01:46.632Z,63.60
2023-03-17T13:04:26.499Z,62.20
2023-03-17T13:07:00.182Z,62.80
2023-03-17T13:09:45.535Z,62.50
2023-03-17T13:13:06.045Z,60.90
2023-03-17T13:15:55.749Z,61.90
2023-03-17T13:18:49.916Z,62.70
2023-03-17T13:21:16.369Z,63.40
2023-03-17T13:23:44.268Z,63.20
2023-03-17T13:26:13.997Z,63.80
2023-03-17T13:28:49.464Z,64.40
2023-03-17T13:31:32.052Z,64.10
2023-03-17T13:33:58.573Z,64.20
2023-03-17T13:36:29.776Z,63.80
2023-03-17T13:39:28.522Z,64.60
2023-03-17T13:42:17.617Z,65.90
2023-03-17T13:44:58.077Z,65.60
2023-03-17T13:47:34.885Z,66.40
2023-03-17T13:50:04.230Z,67.30
2023-03-17T13:52:32.010Z,66.00
2023-03-17T13:55:05.442Z,66.80
2023-03-17T13:57:37.227Z,66.70
2023-03-17T14:00:17.624Z,67.50
2023-03-17T14:02:43.416Z,67.40
2023-03-17T14:05:10.149Z,67.10
2023-03-17T14:07:44.921Z,67.10
2023-03-17T14:10:17.583Z,66.60
2023-03-17T14:12:51.301Z,66.70
2023-03-17T14:15:23.345Z,66.50
2023-03-17T14:17:52.713Z,66.40
2023-03-17T14:20:23.821Z,67.10
2023-03-17T14:22:53.943Z,66.90
2023-03-17T14:25:20.903Z,66.60
2023-03-17T14:27:49.239Z,67.20
2023-03-17T14:30:20.589Z,66.50
2023-03-17T14:32:49.058Z,66.90
2023-03-17T14:35:14.657Z,67.20
2023-03-17T14:37:39.467Z,73.10
2023-03-17T14:40:04.000Z,67.10
2023-03-17T14:42:32.843Z,66.10
2023-03-17T14:45:07.769Z,65.00
2023-03-17T14:47:38.458Z,65.20
2023-03-17T14:50:03.327Z,64.80
2023-03-17T14:52:29.954Z,65.40
2023-03-17T14:54:56.430Z,66.30
2023-03-17T14:57:23.832Z,66.40
2023-03-17T14:59:58.200Z,67.10
2023-03-17T15:02:29.069Z,66.90
2023-03-17T15:04:56.026Z,67.00
2023-03-17T15:07:32.298Z,67.50
2023-03-17T15:10:02.006Z,67.50
2023-03-17T15:12:30.321Z,68.00
2023-03-17T15:14:59.038Z,68.00
2023-03-17T15:17:30.872Z,69.00
2023-03-17T15:19:59.579Z,70.20
2023-03-17T15:22:26.779Z,70.70
2023-03-17T15:25:00.192Z,71.60
2023-03-17T15:27:24.723Z,72.10
2023-03-17T15:29:49.299Z,73.50
2023-03-17T15:32:15.841Z,74.40
2023-03-17T15:34:42.004Z,74.80
2023-03-17T15:37:15.053Z,75.10
2023-03-17T15:39:39.577Z,75.00
2023-03-17T15:42:04.096Z,74.90
2023-03-17T15:44:30.094Z,75.60
2023-03-17T15:46:54.590Z,76.20
2023-03-17T15:49:19.052Z,76.60
2023-03-17T15:51:44.889Z,77.30
2023-03-17T15:54:15.343Z,77.30
2023-03-17T15:56:39.945Z,77.40
2023-03-17T15:59:04.751Z,78.40
2023-03-17T16:01:29.704Z,79.20
2023-03-17T16:03:54.602Z,80.00
2023-03-17T16:06:21.493Z,80.40
2023-03-17T16:08:47.717Z,80.90
2023-03-17T16:11:20.067Z,81.00
2023-03-17T16:13:44.801Z,81.90
2023-03-17T16:16:22.759Z,82.50
2023-03-17T16:18:48.153Z,82.70
2023-03-17T16:21:13.469Z,83.00
2023-03-17T16:23:38.250Z,83.10
2023-03-17T16:26:14.245Z,83.50
2023-03-17T16:28:39.916Z,83.80
2023-03-17T16:31:16.143Z,84.30
2023-03-17T16:33:42.026Z,84.50
2023-03-17T16:36:07.134Z,84.80
2023-03-17T16:38:34.533Z,85.60
2023-03-17T16:41:02.191Z,86.30
2023-03-17T16:43:30.115Z,87.10
2023-03-17T16:45:56.218Z,87.40
2023-03-17T16:48:20.841Z,87.30
2023-03-17T16:50:46.056Z,87.30
2023-03-17T16:53:11.133Z,87.80
2023-03-17T16:55:36.494Z,88.40
2023-03-17T16:58:06.565Z,88.40
2023-03-17T17:00:32.858Z,88.90
2023-03-17T17:02:59.529Z,89.30
2023-03-17T17:05:27.364Z,89.30
2023-03-17T17:07:55.691Z,88.80
2023-03-17T17:10:22.282Z,89.00
2023-03-17T17:12:47.461Z,89.70
2023-03-17T17:15:14.273Z,90.20
2023-03-17T17:17:42.213Z,90.20
2023-03-17T17:20:13.659Z,90.20
2023-03-17T17:22:38.262Z,90.20
2023-03-17T17:25:04.811Z,90.20
2023-03-17T17:27:32.357Z,90.00
2023-03-17T17:29:56.846Z,89.90
2023-03-17T17:32:23.692Z,90.00
2023-03-17T17:34:49.731Z,89.70
2023-03-17T17:37:14.433Z,89.40
2023-03-17T17:39:38.915Z,90.00
2023-03-17T17:42:03.622Z,90.00
2023-03-17T17:44:28.158Z,90.20
2023-03-17T17:46:52.654Z,90.00
2023-03-17T17:49:17.061Z,89.90
2023-03-17T17:51:45.888Z,90.00
2023-03-17T17:54:10.403Z,89.80
2023-03-17T17:56:38.226Z,90.40
2023-03-17T17:59:02.679Z,90.70
2023-03-17T18:01:27.216Z,90.50
2023-03-17T18:03:51.691Z,90.50
2023-03-17T18:06:17.482Z,90.60
2023-03-17T18:08:43.615Z,90.50
2023-03-17T18:11:08.869Z,90.40
2023-03-17T18:13:34.456Z,91.50
2023-03-17T18:15:58.974Z,92.10
2023-03-17T18:18:25.901Z,92.10
2023-03-17T18:20:50.952Z,91.90
2023-03-17T18:23:17.701Z,91.50
2023-03-17T18:25:43.648Z,91.00
2023-03-17T18:28:08.531Z,91.00
2023-03-17T18:30:35.153Z,91.00
2023-03-17T18:33:14.287Z,91.40
2023-03-17T18:35:39.382Z,91.40
2023-03-17T18:38:03.882Z,91.60
2023-03-17T18:40:28.341Z,91.50
2023-03-17T18:42:58.300Z,91.50
2023-03-17T18:45:23.763Z,91.50
2023-03-17T18:47:53.340Z,91.50
2023-03-17T18:50:18.819Z,91.70
2023-03-17T18:52:45.010Z,91.60
2023-03-17T18:55:11.261Z,91.60
2023-03-17T18:57:37.222Z,91.70
2023-03-17T19:00:05.337Z,91.70
2023-03-17T19:02:29.948Z,91.30
2023-03-17T19:04:54.617Z,90.30
2023-03-17T19:07:19.204Z,89.90
2023-03-17T19:09:43.793Z,88.90
2023-03-17T19:12:09.911Z,85.80
2023-03-17T19:14:38.590Z,85.30
2023-03-17T19:17:04.863Z,81.30
2023-03-17T19:19:29.648Z,76.30
2023-03-17T19:21:55.542Z,78.90
2023-03-17T19:24:19.975Z,70.80
2023-03-17T19:26:44.376Z,68.90
2023-03-17T19:29:09.883Z,66.80
2023-03-17T19:31:35.144Z,64.90
2023-03-17T19:34:01.966Z,64.70
2023-03-17T19:36:26.469Z,64.30
2023-03-17T19:38:51.223Z,60.60
2023-03-17T19:41:16.528Z,58.70
2023-03-17T19:43:41.848Z,58.70
2023-03-17T19:46:09.569Z,57.90
2023-03-17T19:48:34.551Z,56.70
2023-03-17T19:51:03.342Z,57.10
2023-03-17T19:53:27.956Z,57.40
2023-03-17T19:55:52.427Z,57.30
2023-03-17T19:58:18.739Z,57.80
2023-03-17T20:00:43.616Z,58.00
2023-03-17T20:03:12.684Z,58.00
2023-03-17T20:05:37.078Z,58.10
2023-03-17T20:08:03.056Z,58.30
2023-03-17T20:10:27.711Z,57.90
2023-03-17T20:12:52.297Z,57.30
2023-03-17T20:15:17.459Z,57.50
2023-03-17T20:17:41.951Z,57.90
2023-03-17T20:20:09.307Z,58.10
2023-03-17T20:22:33.783Z,57.60
2023-03-17T20:24:59.643Z,57.50
2023-03-17T20:27:24.744Z,58.30
2023-03-17T20:29:49.305Z,58.00
2023-03-17T20:32:14.974Z,58.00
2023-03-17T20:34:39.390Z,57.90
2023-03-17T20:37:04.693Z,57.80
2023-03-17T20:39:29.599Z,56.50
2023-03-17T20:41:55.626Z,57.00
2023-03-17T20:44:21.149Z,57.30
2023-03-17T20:46:46.215Z,57.20
2023-03-17T20:49:12.107Z,57.00
2023-03-17T20:51:37.849Z,57.80
2023-03-17T20:54:06.206Z,56.90
2023-03-17T20:56:31.139Z,57.10
2023-03-17T20:58:58.572Z,57.30
2023-03-17T21:01:23.657Z,57.50
2023-03-17T21:03:48.643Z,57.30
2023-03-17T21:06:13.389Z,57.10
2023-03-17T21:08:38.757Z,57.90
2023-03-17T21:11:09.329Z,57.90
2023-03-17T21:13:34.425Z,57.10
2023-03-17T21:16:01.573Z,57.30
2023-03-17T21:18:26.221Z,57.30
2023-03-17T21:20:51.911Z,57.80
2023-03-17T21:23:16.444Z,57.50
2023-03-17T21:25:41.055Z,57.60
2023-03-17T21:28:06.307Z,58.40
2023-03-17T21:30:31.110Z,57.90
2023-03-17T21:32:57.174Z,58.00
2023-03-17T21:35:21.960Z,58.40
2023-03-17T21:37:49.458Z,58.40
2023-03-17T21:40:15.727Z,58.60
2023-03-17T21:42:40.760Z,57.90
2023-03-17T21:45:05.888Z,57.90
2023-03-17T21:47:33.401Z,58.60
2023-03-17T21:49:59.257Z,58.80
2023-03-17T21:52:23.975Z,57.80
2023-03-17T21:54:49.010Z,58.80
2023-03-17T21:57:13.489Z,58.00
2023-03-17T21:59:38.692Z,58.80
2023-03-17T22:02:03.727Z,59.00
2023-03-17T22:04:28.804Z,58.40
2023-03-17T22:06:57.216Z,58.40
2023-03-17T22:09:21.910Z,58.90
2023-03-17T22:11:46.406Z,59.30
2023-03-17T22:14:13.416Z,58.50
2023-03-17T22:16:38.059Z,58.80
2023-03-17T22:19:02.619Z,58.70
2023-03-17T22:21:28.888Z,58.50
2023-03-17T22:23:54.839Z,58.50
2023-03-17T22:26:21.153Z,58.30
2023-03-17T22:28:46.974Z,58.40
2023-03-17T22:31:15.602Z,58.70
2023-03-17T22:33:40.388Z,58.60
2023-03-17T22:36:05.228Z,59.00
2023-03-17T22:38:30.000Z,59.20
2023-03-17T22:41:08.340Z,59.20
2023-03-17T22:43:33.410Z,59.40
2023-03-17T22:46:00.610Z,58.80
2023-03-17T22:48:32.288Z,59.10
2023-03-17T22:51:02.784Z,59.30
2023-03-17T22:53:27.223Z,59.70
2023-03-17T22:55:51.710Z,60.10
2023-03-17T22:58:17.552Z,60.00
2023-03-17T23:00:42.488Z,60.00
2023-03-17T23:03:07.373Z,60.20
2023-03-17T23:05:31.822Z,60.40
2023-03-17T23:07:56.372Z,60.40
2023-03-17T23:10:39.610Z,60.30
2023-03-17T23:13:05.966Z,60.60
2023-03-17T23:15:32.176Z,61.10
2023-03-17T23:17:59.333Z,60.70
2023-03-17T23:20:24.519Z,61.00
2023-03-17T23:22:49.275Z,61.10
2023-03-17T23:25:17.145Z,61.60
2023-03-17T23:27:41.939Z,61.40
2023-03-17T23:30:07.156Z,61.80
2023-03-17T23:32:34.368Z,61.80
2023-03-17T23:34:58.849Z,61.90
2023-03-17T23:37:23.846Z,62.40
2023-03-17T23:39:48.556Z,62.00
2023-03-17T23:42:13.339Z,62.00
2023-03-17T23:44:37.740Z,61.90
2023-03-17T23:47:03.215Z,61.60
2023-03-17T23:49:29.079Z,61.90
2023-03-17T23:51:53.565Z,62.00
2023-03-17T23:54:18.055Z,62.70
2023-03-17T23:56:42.727Z,62.70
2023-03-17T23:59:09.243Z,62.70
